sensor_id;sensor_type;location;lat;lon;timestamp;temperature;humidity
19920;DHT22;10122;50.074;19.920;2022-12-24T00:00:07;5.80;99.90
19920;DHT22;10122;50.074;19.920;2022-12-24T00:02:33;5.70;99.90
19920;DHT22;10122;50.074;19.920;2022-12-24T00:04:58;5.70;99.90
19920;DHT22;10122;50.074;19.920;2022-12-24T00:07:24;5.70;99.90
19920;DHT22;10122;50.074;19.920;2022-12-24T00:09:50;5.70;99.90
19920;DHT22;10122;50.074;19.920;2022-12-24T00:12:15;5.80;99.90
19920;DHT22;10122;50.074;19.920;2022-12-24T00:14:41;5.80;99.90
19920;DHT22;10122;50.074;19.920;2022-12-24T00:17:07;5.70;99.90
19920;DHT22;10122;50.074;19.920;2022-12-24T00:19:32;5.70;99.90
19920;DHT22;10122;50.074;19.920;2022-12-24T00:21:58;5.70;99.90
19920;DHT22;10122;50.074;19.920;2022-12-24T00:24:24;5.70;99.90
19920;DHT22;10122;50.074;19.920;2022-12-24T00:26:49;5.70;99.90
19920;DHT22;10122;50.074;19.920;2022-12-24T00:29:15;5.70;99.90
19920;DHT22;10122;50.074;19.920;2022-12-24T00:31:41;5.90;99.90
19920;DHT22;10122;50.074;19.920;2022-12-24T00:34:06;6.00;99.90
19920;DHT22;10122;50.074;19.920;2022-12-24T00:36:33;6.20;99.90
19920;DHT22;10122;50.074;19.920;2022-12-24T00:38:58;6.30;99.90
19920;DHT22;10122;50.074;19.920;2022-12-24T00:41:24;6.40;99.90
19920;DHT22;10122;50.074;19.920;2022-12-24T00:44:04;6.50;99.90
19920;DHT22;10122;50.074;19.920;2022-12-24T00:46:32;6.50;99.90
19920;DHT22;10122;50.074;19.920;2022-12-24T00:48:58;6.50;99.90
19920;DHT22;10122;50.074;19.920;2022-12-24T00:51:24;6.50;99.90
19920;DHT22;10122;50.074;19.920;2022-12-24T00:53:50;6.40;99.90
19920;DHT22;10122;50.074;19.920;2022-12-24T00:56:17;6.40;99.90
19920;DHT22;10122;50.074;19.920;2022-12-24T00:58:42;6.50;99.90
19920;DHT22;10122;50.074;19.920;2022-12-24T01:01:08;6.40;99.90
19920;DHT22;10122;50.074;19.920;2022-12-24T01:03:34;6.50;99.90
19920;DHT22;10122;50.074;19.920;2022-12-24T01:06:01;6.50;99.90
19920;DHT22;10122;50.074;19.920;2022-12-24T01:08:27;6.40;99.90
19920;DHT22;10122;50.074;19.920;2022-12-24T01:10:52;6.10;99.90
19920;DHT22;10122;50.074;19.920;2022-12-24T01:13:18;5.80;99.90
19920;DHT22;10122;50.074;19.920;2022-12-24T01:15:44;5.70;99.90
19920;DHT22;10122;50.074;19.920;2022-12-24T01:18:10;5.70;99.90
19920;DHT22;10122;50.074;19.920;2022-12-24T01:20:35;5.80;99.90
19920;DHT22;10122;50.074;19.920;2022-12-24T01:23:01;5.70;99.90
19920;DHT22;10122;50.074;19.920;2022-12-24T01:25:27;5.60;99.90
19920;DHT22;10122;50.074;19.920;2022-12-24T01:27:53;5.60;99.90
19920;DHT22;10122;50.074;19.920;2022-12-24T01:30:18;5.60;99.90
19920;DHT22;10122;50.074;19.920;2022-12-24T01:32:44;5.70;99.90
19920;DHT22;10122;50.074;19.920;2022-12-24T01:35:10;5.70;99.90
19920;DHT22;10122;50.074;19.920;2022-12-24T01:37:37;5.60;99.90
19920;DHT22;10122;50.074;19.920;2022-12-24T01:40:05;5.60;99.90
19920;DHT22;10122;50.074;19.920;2022-12-24T01:42:52;5.50;99.90
19920;DHT22;10122;50.074;19.920;2022-12-24T01:48:02;5.60;99.90
19920;DHT22;10122;50.074;19.920;2022-12-24T01:50:29;5.70;99.90
19920;DHT22;10122;50.074;19.920;2022-12-24T01:52:55;5.80;99.90
19920;DHT22;10122;50.074;19.920;2022-12-24T01:55:22;5.70;99.90
19920;DHT22;10122;50.074;19.920;2022-12-24T01:57:52;5.70;99.90
19920;DHT22;10122;50.074;19.920;2022-12-24T02:00:18;5.70;99.90
19920;DHT22;10122;50.074;19.920;2022-12-24T02:02:46;5.70;99.90
19920;DHT22;10122;50.074;19.920;2022-12-24T02:05:17;5.60;99.90
19920;DHT22;10122;50.074;19.920;2022-12-24T02:07:44;5.70;99.90
19920;DHT22;10122;50.074;19.920;2022-12-24T02:10:12;5.70;99.90
19920;DHT22;10122;50.074;19.920;2022-12-24T02:12:39;5.60;99.90
19920;DHT22;10122;50.074;19.920;2022-12-24T02:15:08;5.60;99.90
19920;DHT22;10122;50.074;19.920;2022-12-24T02:29:17;5.60;99.90
19920;DHT22;10122;50.074;19.920;2022-12-24T02:31:35;5.60;99.90
19920;DHT22;10122;50.074;19.920;2022-12-24T02:34:06;5.60;99.90
19920;DHT22;10122;50.074;19.920;2022-12-24T02:39:42;5.60;99.90
19920;DHT22;10122;50.074;19.920;2022-12-24T02:42:11;5.60;99.90
19920;DHT22;10122;50.074;19.920;2022-12-24T02:44:47;5.60;99.90
19920;DHT22;10122;50.074;19.920;2022-12-24T02:47:16;5.50;99.90
19920;DHT22;10122;50.074;19.920;2022-12-24T02:49:44;5.60;99.90
19920;DHT22;10122;50.074;19.920;2022-12-24T02:52:28;5.70;99.90
19920;DHT22;10122;50.074;19.920;2022-12-24T02:54:54;5.70;99.90
19920;DHT22;10122;50.074;19.920;2022-12-24T02:57:31;5.60;99.90
19920;DHT22;10122;50.074;19.920;2022-12-24T03:00:09;5.60;99.90
19920;DHT22;10122;50.074;19.920;2022-12-24T03:08:20;5.50;99.90
19920;DHT22;10122;50.074;19.920;2022-12-24T03:10:59;5.50;99.90
19920;DHT22;10122;50.074;19.920;2022-12-24T03:13:26;5.40;99.90
19920;DHT22;10122;50.074;19.920;2022-12-24T03:15:52;5.50;99.90
19920;DHT22;10122;50.074;19.920;2022-12-24T03:18:24;5.40;99.90
19920;DHT22;10122;50.074;19.920;2022-12-24T03:21:09;5.50;99.90
19920;DHT22;10122;50.074;19.920;2022-12-24T03:23:36;5.50;99.90
19920;DHT22;10122;50.074;19.920;2022-12-24T03:26:06;5.50;99.90
19920;DHT22;10122;50.074;19.920;2022-12-24T03:28:34;5.50;99.90
19920;DHT22;10122;50.074;19.920;2022-12-24T03:31:03;5.50;99.90
19920;DHT22;10122;50.074;19.920;2022-12-24T03:33:29;5.50;99.90
19920;DHT22;10122;50.074;19.920;2022-12-24T03:35:54;5.60;99.90
19920;DHT22;10122;50.074;19.920;2022-12-24T03:38:20;5.80;99.90
19920;DHT22;10122;50.074;19.920;2022-12-24T03:40:46;5.80;99.90
19920;DHT22;10122;50.074;19.920;2022-12-24T03:43:11;5.60;99.90
19920;DHT22;10122;50.074;19.920;2022-12-24T03:45:37;5.60;99.90
19920;DHT22;10122;50.074;19.920;2022-12-24T03:48:03;5.60;99.90
19920;DHT22;10122;50.074;19.920;2022-12-24T03:50:29;5.50;99.90
19920;DHT22;10122;50.074;19.920;2022-12-24T03:52:55;5.50;99.90
19920;DHT22;10122;50.074;19.920;2022-12-24T03:55:21;5.50;99.90
19920;DHT22;10122;50.074;19.920;2022-12-24T03:57:47;5.50;99.90
19920;DHT22;10122;50.074;19.920;2022-12-24T04:00:13;5.50;99.90
19920;DHT22;10122;50.074;19.920;2022-12-24T04:02:39;5.50;99.90
19920;DHT22;10122;50.074;19.920;2022-12-24T04:05:07;5.50;99.90
19920;DHT22;10122;50.074;19.920;2022-12-24T04:07:33;5.50;99.90
19920;DHT22;10122;50.074;19.920;2022-12-24T04:09:58;5.50;99.90
19920;DHT22;10122;50.074;19.920;2022-12-24T04:12:24;5.60;99.90
19920;DHT22;10122;50.074;19.920;2022-12-24T04:14:50;5.50;99.90
19920;DHT22;10122;50.074;19.920;2022-12-24T04:17:16;5.60;99.90
19920;DHT22;10122;50.074;19.920;2022-12-24T04:19:42;5.70;99.90
19920;DHT22;10122;50.074;19.920;2022-12-24T04:22:08;5.60;99.90
19920;DHT22;10122;50.074;19.920;2022-12-24T04:24:34;5.70;99.90
19920;DHT22;10122;50.074;19.920;2022-12-24T04:26:59;5.70;99.90
19920;DHT22;10122;50.074;19.920;2022-12-24T04:29:25;5.70;99.90
19920;DHT22;10122;50.074;19.920;2022-12-24T04:31:51;5.70;99.90
19920;DHT22;10122;50.074;19.920;2022-12-24T04:34:16;5.60;99.90
19920;DHT22;10122;50.074;19.920;2022-12-24T04:36:42;5.60;99.90
19920;DHT22;10122;50.074;19.920;2022-12-24T04:39:08;5.60;99.90
19920;DHT22;10122;50.074;19.920;2022-12-24T04:41:33;5.50;99.90
19920;DHT22;10122;50.074;19.920;2022-12-24T04:43:59;5.50;99.90
19920;DHT22;10122;50.074;19.920;2022-12-24T04:46:27;5.60;99.90
19920;DHT22;10122;50.074;19.920;2022-12-24T04:48:56;5.50;99.90
19920;DHT22;10122;50.074;19.920;2022-12-24T04:51:23;5.50;99.90
19920;DHT22;10122;50.074;19.920;2022-12-24T04:53:49;5.40;99.90
19920;DHT22;10122;50.074;19.920;2022-12-24T04:56:23;5.40;99.90
19920;DHT22;10122;50.074;19.920;2022-12-24T04:58:50;5.50;99.90
19920;DHT22;10122;50.074;19.920;2022-12-24T05:01:21;5.50;99.90
19920;DHT22;10122;50.074;19.920;2022-12-24T05:03:47;5.50;99.90
19920;DHT22;10122;50.074;19.920;2022-12-24T05:06:18;5.50;99.90
19920;DHT22;10122;50.074;19.920;2022-12-24T05:08:44;5.50;99.90
19920;DHT22;10122;50.074;19.920;2022-12-24T05:11:10;5.50;99.90
19920;DHT22;10122;50.074;19.920;2022-12-24T05:13:44;5.50;99.90
19920;DHT22;10122;50.074;19.920;2022-12-24T05:16:11;5.50;99.90
19920;DHT22;10122;50.074;19.920;2022-12-24T05:18:37;5.40;99.90
19920;DHT22;10122;50.074;19.920;2022-12-24T05:21:07;5.40;99.90
19920;DHT22;10122;50.074;19.920;2022-12-24T05:23:33;5.50;99.90
19920;DHT22;10122;50.074;19.920;2022-12-24T05:28:59;5.70;99.90
19920;DHT22;10122;50.074;19.920;2022-12-24T05:31:26;5.80;99.90
19920;DHT22;10122;50.074;19.920;2022-12-24T05:33:52;5.80;99.90
19920;DHT22;10122;50.074;19.920;2022-12-24T05:36:19;6.00;99.90
19920;DHT22;10122;50.074;19.920;2022-12-24T05:38:45;6.10;99.90
19920;DHT22;10122;50.074;19.920;2022-12-24T05:41:10;6.10;99.90
19920;DHT22;10122;50.074;19.920;2022-12-24T05:43:36;6.00;99.90
19920;DHT22;10122;50.074;19.920;2022-12-24T05:46:05;6.00;99.90
19920;DHT22;10122;50.074;19.920;2022-12-24T05:48:31;6.00;99.90
19920;DHT22;10122;50.074;19.920;2022-12-24T05:50:57;6.00;99.90
19920;DHT22;10122;50.074;19.920;2022-12-24T05:53:23;5.90;99.90
19920;DHT22;10122;50.074;19.920;2022-12-24T05:55:49;5.90;99.90
19920;DHT22;10122;50.074;19.920;2022-12-24T05:58:14;5.90;99.90
19920;DHT22;10122;50.074;19.920;2022-12-24T06:00:41;5.90;99.90
19920;DHT22;10122;50.074;19.920;2022-12-24T06:03:06;6.10;99.90
19920;DHT22;10122;50.074;19.920;2022-12-24T06:05:32;6.20;99.90
19920;DHT22;10122;50.074;19.920;2022-12-24T06:07:58;6.20;99.90
19920;DHT22;10122;50.074;19.920;2022-12-24T06:10:23;6.30;99.90
19920;DHT22;10122;50.074;19.920;2022-12-24T06:12:49;6.30;99.90
19920;DHT22;10122;50.074;19.920;2022-12-24T06:15:15;6.20;99.90
19920;DHT22;10122;50.074;19.920;2022-12-24T06:17:41;6.30;99.90
19920;DHT22;10122;50.074;19.920;2022-12-24T06:20:07;6.30;99.90
19920;DHT22;10122;50.074;19.920;2022-12-24T06:22:33;6.30;99.90
19920;DHT22;10122;50.074;19.920;2022-12-24T06:24:59;6.30;99.90
19920;DHT22;10122;50.074;19.920;2022-12-24T06:27:25;6.30;99.90
19920;DHT22;10122;50.074;19.920;2022-12-24T06:29:50;6.30;99.90
19920;DHT22;10122;50.074;19.920;2022-12-24T06:32:16;6.30;99.90
19920;DHT22;10122;50.074;19.920;2022-12-24T06:34:42;6.40;99.90
19920;DHT22;10122;50.074;19.920;2022-12-24T06:37:07;6.40;99.90
19920;DHT22;10122;50.074;19.920;2022-12-24T06:39:40;6.40;99.90
19920;DHT22;10122;50.074;19.920;2022-12-24T06:42:06;6.40;99.90
19920;DHT22;10122;50.074;19.920;2022-12-24T06:44:32;6.50;99.90
19920;DHT22;10122;50.074;19.920;2022-12-24T06:46:57;6.80;99.90
19920;DHT22;10122;50.074;19.920;2022-12-24T06:49:23;6.90;99.90
19920;DHT22;10122;50.074;19.920;2022-12-24T06:51:49;7.00;99.90
19920;DHT22;10122;50.074;19.920;2022-12-24T06:54:14;7.10;99.90
19920;DHT22;10122;50.074;19.920;2022-12-24T06:56:40;6.90;99.90
19920;DHT22;10122;50.074;19.920;2022-12-24T06:59:06;6.90;99.90
19920;DHT22;10122;50.074;19.920;2022-12-24T07:01:31;6.90;99.90
19920;DHT22;10122;50.074;19.920;2022-12-24T07:03:57;6.90;99.90
19920;DHT22;10122;50.074;19.920;2022-12-24T07:06:25;6.80;99.90
19920;DHT22;10122;50.074;19.920;2022-12-24T07:08:51;6.80;99.90
19920;DHT22;10122;50.074;19.920;2022-12-24T07:11:17;6.80;99.90
19920;DHT22;10122;50.074;19.920;2022-12-24T07:13:44;6.70;99.90
19920;DHT22;10122;50.074;19.920;2022-12-24T07:16:10;6.60;99.90
19920;DHT22;10122;50.074;19.920;2022-12-24T07:18:36;6.60;99.90
19920;DHT22;10122;50.074;19.920;2022-12-24T07:21:05;6.60;99.90
19920;DHT22;10122;50.074;19.920;2022-12-24T07:23:32;6.60;99.90
19920;DHT22;10122;50.074;19.920;2022-12-24T07:26:01;6.60;99.90
19920;DHT22;10122;50.074;19.920;2022-12-24T07:28:28;6.60;99.90
19920;DHT22;10122;50.074;19.920;2022-12-24T07:30:55;6.60;99.90
19920;DHT22;10122;50.074;19.920;2022-12-24T07:33:21;6.60;99.90
19920;DHT22;10122;50.074;19.920;2022-12-24T07:35:47;6.70;99.90
19920;DHT22;10122;50.074;19.920;2022-12-24T07:38:12;6.60;99.90
19920;DHT22;10122;50.074;19.920;2022-12-24T07:40:38;6.60;99.90
19920;DHT22;10122;50.074;19.920;2022-12-24T07:43:04;6.60;99.90
19920;DHT22;10122;50.074;19.920;2022-12-24T07:45:29;6.60;99.90
19920;DHT22;10122;50.074;19.920;2022-12-24T07:47:55;6.70;99.90
19920;DHT22;10122;50.074;19.920;2022-12-24T07:50:21;6.70;99.90
19920;DHT22;10122;50.074;19.920;2022-12-24T07:52:46;6.70;99.90
19920;DHT22;10122;50.074;19.920;2022-12-24T07:55:12;6.80;99.90
19920;DHT22;10122;50.074;19.920;2022-12-24T07:57:38;6.80;99.90
19920;DHT22;10122;50.074;19.920;2022-12-24T08:00:04;6.90;99.90
19920;DHT22;10122;50.074;19.920;2022-12-24T08:02:30;7.00;99.90
19920;DHT22;10122;50.074;19.920;2022-12-24T08:04:55;7.40;99.90
19920;DHT22;10122;50.074;19.920;2022-12-24T08:07:21;7.70;99.90
19920;DHT22;10122;50.074;19.920;2022-12-24T08:09:47;8.00;99.90
19920;DHT22;10122;50.074;19.920;2022-12-24T08:12:12;8.10;99.90
19920;DHT22;10122;50.074;19.920;2022-12-24T08:14:38;8.10;99.90
19920;DHT22;10122;50.074;19.920;2022-12-24T08:17:04;8.10;99.90
19920;DHT22;10122;50.074;19.920;2022-12-24T08:19:29;8.10;99.90
19920;DHT22;10122;50.074;19.920;2022-12-24T08:21:55;8.00;99.90
19920;DHT22;10122;50.074;19.920;2022-12-24T08:24:21;8.00;99.90
19920;DHT22;10122;50.074;19.920;2022-12-24T08:26:46;8.00;99.90
19920;DHT22;10122;50.074;19.920;2022-12-24T08:29:12;8.00;99.90
19920;DHT22;10122;50.074;19.920;2022-12-24T08:31:38;8.00;99.90
19920;DHT22;10122;50.074;19.920;2022-12-24T08:34:05;8.10;99.90
19920;DHT22;10122;50.074;19.920;2022-12-24T08:36:31;8.10;99.90
19920;DHT22;10122;50.074;19.920;2022-12-24T08:38:57;8.10;99.90
19920;DHT22;10122;50.074;19.920;2022-12-24T08:41:24;8.20;99.90
19920;DHT22;10122;50.074;19.920;2022-12-24T08:43:49;8.30;99.90
19920;DHT22;10122;50.074;19.920;2022-12-24T08:46:15;8.40;99.90
19920;DHT22;10122;50.074;19.920;2022-12-24T08:48:41;8.60;99.90
19920;DHT22;10122;50.074;19.920;2022-12-24T08:51:10;8.60;99.90
19920;DHT22;10122;50.074;19.920;2022-12-24T08:53:37;8.60;99.90
19920;DHT22;10122;50.074;19.920;2022-12-24T08:56:04;8.80;99.90
19920;DHT22;10122;50.074;19.920;2022-12-24T08:58:31;8.90;99.90
19920;DHT22;10122;50.074;19.920;2022-12-24T09:00:57;9.00;99.90
19920;DHT22;10122;50.074;19.920;2022-12-24T09:03:23;9.20;99.90
19920;DHT22;10122;50.074;19.920;2022-12-24T09:05:48;9.20;99.90
19920;DHT22;10122;50.074;19.920;2022-12-24T09:08:14;9.20;99.90
19920;DHT22;10122;50.074;19.920;2022-12-24T09:10:40;9.20;99.90
19920;DHT22;10122;50.074;19.920;2022-12-24T09:13:05;9.30;99.90
19920;DHT22;10122;50.074;19.920;2022-12-24T09:15:31;9.30;99.90
19920;DHT22;10122;50.074;19.920;2022-12-24T09:17:57;9.40;99.90
19920;DHT22;10122;50.074;19.920;2022-12-24T09:20:22;9.30;99.90
19920;DHT22;10122;50.074;19.920;2022-12-24T09:22:48;9.30;99.90
19920;DHT22;10122;50.074;19.920;2022-12-24T09:25:14;9.30;99.90
19920;DHT22;10122;50.074;19.920;2022-12-24T09:27:40;9.20;99.90
19920;DHT22;10122;50.074;19.920;2022-12-24T09:30:06;9.20;99.90
19920;DHT22;10122;50.074;19.920;2022-12-24T09:32:33;9.20;99.90
19920;DHT22;10122;50.074;19.920;2022-12-24T09:34:58;9.10;99.90
19920;DHT22;10122;50.074;19.920;2022-12-24T09:37:24;9.10;99.90
19920;DHT22;10122;50.074;19.920;2022-12-24T09:39:50;9.10;99.90
19920;DHT22;10122;50.074;19.920;2022-12-24T09:42:54;9.10;99.90
19920;DHT22;10122;50.074;19.920;2022-12-24T09:45:28;9.10;99.90
19920;DHT22;10122;50.074;19.920;2022-12-24T09:48:01;9.10;99.90
19920;DHT22;10122;50.074;19.920;2022-12-24T09:51:20;9.00;99.90
19920;DHT22;10122;50.074;19.920;2022-12-24T09:54:00;9.00;99.90
19920;DHT22;10122;50.074;19.920;2022-12-24T09:56:30;8.90;99.90
19920;DHT22;10122;50.074;19.920;2022-12-24T09:59:02;8.90;99.90
19920;DHT22;10122;50.074;19.920;2022-12-24T10:01:32;8.90;99.90
19920;DHT22;10122;50.074;19.920;2022-12-24T10:04:10;9.10;99.90
19920;DHT22;10122;50.074;19.920;2022-12-24T10:06:53;9.10;99.90
19920;DHT22;10122;50.074;19.920;2022-12-24T10:12:48;9.20;99.90
19920;DHT22;10122;50.074;19.920;2022-12-24T10:15:29;9.00;99.90
19920;DHT22;10122;50.074;19.920;2022-12-24T10:28:55;8.60;99.90
19920;DHT22;10122;50.074;19.920;2022-12-24T10:31:26;8.60;99.90
19920;DHT22;10122;50.074;19.920;2022-12-24T10:34:01;8.50;99.90
19920;DHT22;10122;50.074;19.920;2022-12-24T10:36:29;8.50;99.90
19920;DHT22;10122;50.074;19.920;2022-12-24T10:38:55;8.50;99.90
19920;DHT22;10122;50.074;19.920;2022-12-24T10:41:24;8.60;99.90
19920;DHT22;10122;50.074;19.920;2022-12-24T10:43:50;8.70;99.90
19920;DHT22;10122;50.074;19.920;2022-12-24T10:46:37;8.70;99.90
19920;DHT22;10122;50.074;19.920;2022-12-24T10:49:11;8.70;99.90
19920;DHT22;10122;50.074;19.920;2022-12-24T10:51:54;8.70;99.90
19920;DHT22;10122;50.074;19.920;2022-12-24T10:54:24;8.80;99.90
19920;DHT22;10122;50.074;19.920;2022-12-24T10:56:54;8.80;99.90
19920;DHT22;10122;50.074;19.920;2022-12-24T11:01:59;8.80;99.90
19920;DHT22;10122;50.074;19.920;2022-12-24T11:04:31;9.00;99.90
19920;DHT22;10122;50.074;19.920;2022-12-24T11:07:05;9.10;99.90
19920;DHT22;10122;50.074;19.920;2022-12-24T11:09:34;9.10;99.90
19920;DHT22;10122;50.074;19.920;2022-12-24T11:12:03;9.20;99.90
19920;DHT22;10122;50.074;19.920;2022-12-24T11:14:36;9.20;99.90
19920;DHT22;10122;50.074;19.920;2022-12-24T11:17:03;9.10;99.90
19920;DHT22;10122;50.074;19.920;2022-12-24T11:19:38;9.10;99.90
19920;DHT22;10122;50.074;19.920;2022-12-24T11:22:06;9.10;99.90
19920;DHT22;10122;50.074;19.920;2022-12-24T11:24:35;9.00;99.90
19920;DHT22;10122;50.074;19.920;2022-12-24T11:27:29;8.90;99.90
19920;DHT22;10122;50.074;19.920;2022-12-24T11:32:42;8.70;99.90
19920;DHT22;10122;50.074;19.920;2022-12-24T11:35:16;8.70;99.90
19920;DHT22;10122;50.074;19.920;2022-12-24T11:37:42;8.70;99.90
19920;DHT22;10122;50.074;19.920;2022-12-24T11:40:22;8.90;99.90
19920;DHT22;10122;50.074;19.920;2022-12-24T11:42:49;9.10;99.90
19920;DHT22;10122;50.074;19.920;2022-12-24T11:45:26;9.20;99.90
19920;DHT22;10122;50.074;19.920;2022-12-24T11:47:52;9.10;99.90
19920;DHT22;10122;50.074;19.920;2022-12-24T11:50:34;9.10;99.90
19920;DHT22;10122;50.074;19.920;2022-12-24T11:55:48;9.10;99.90
19920;DHT22;10122;50.074;19.920;2022-12-24T12:00:51;9.00;99.90
19920;DHT22;10122;50.074;19.920;2022-12-24T12:03:30;9.00;99.90
19920;DHT22;10122;50.074;19.920;2022-12-24T12:05:58;9.00;99.90
19920;DHT22;10122;50.074;19.920;2022-12-24T12:08:26;8.90;99.90
19920;DHT22;10122;50.074;19.920;2022-12-24T12:10:53;9.00;99.90
19920;DHT22;10122;50.074;19.920;2022-12-24T12:13:31;8.90;99.90
19920;DHT22;10122;50.074;19.920;2022-12-24T12:16:39;9.20;99.90
19920;DHT22;10122;50.074;19.920;2022-12-24T12:19:42;9.40;99.90
19920;DHT22;10122;50.074;19.920;2022-12-24T12:22:23;9.40;99.90
19920;DHT22;10122;50.074;19.920;2022-12-24T12:24:53;9.40;99.90
19920;DHT22;10122;50.074;19.920;2022-12-24T12:27:40;9.30;99.90
19920;DHT22;10122;50.074;19.920;2022-12-24T12:30:16;9.20;99.90
19920;DHT22;10122;50.074;19.920;2022-12-24T12:32:57;9.10;99.90
19920;DHT22;10122;50.074;19.920;2022-12-24T12:35:40;9.10;99.90
19920;DHT22;10122;50.074;19.920;2022-12-24T12:38:13;9.10;99.90
19920;DHT22;10122;50.074;19.920;2022-12-24T12:48:48;9.00;99.90
19920;DHT22;10122;50.074;19.920;2022-12-24T12:51:41;9.00;99.90
19920;DHT22;10122;50.074;19.920;2022-12-24T12:57:18;8.90;99.90
19920;DHT22;10122;50.074;19.920;2022-12-24T12:59:50;8.90;99.90
19920;DHT22;10122;50.074;19.920;2022-12-24T13:02:50;8.90;99.90
19920;DHT22;10122;50.074;19.920;2022-12-24T13:08:24;8.80;99.90
19920;DHT22;10122;50.074;19.920;2022-12-24T13:14:23;9.00;99.90
19920;DHT22;10122;50.074;19.920;2022-12-24T13:17:21;9.00;99.90
19920;DHT22;10122;50.074;19.920;2022-12-24T13:22:28;9.00;99.90
19920;DHT22;10122;50.074;19.920;2022-12-24T13:24:54;9.00;99.90
19920;DHT22;10122;50.074;19.920;2022-12-24T13:27:26;9.00;99.90
19920;DHT22;10122;50.074;19.920;2022-12-24T13:29:58;9.00;99.90
19920;DHT22;10122;50.074;19.920;2022-12-24T13:42:48;8.90;99.90
19920;DHT22;10122;50.074;19.920;2022-12-24T13:50:46;8.90;99.90
19920;DHT22;10122;50.074;19.920;2022-12-24T13:56:21;8.90;99.90
19920;DHT22;10122;50.074;19.920;2022-12-24T13:59:07;8.80;99.90
19920;DHT22;10122;50.074;19.920;2022-12-24T14:01:37;8.90;99.90
19920;DHT22;10122;50.074;19.920;2022-12-24T14:04:06;8.80;99.90
19920;DHT22;10122;50.074;19.920;2022-12-24T14:06:39;8.80;99.90
19920;DHT22;10122;50.074;19.920;2022-12-24T14:09:14;8.80;99.90
19920;DHT22;10122;50.074;19.920;2022-12-24T14:14:33;8.80;99.90
19920;DHT22;10122;50.074;19.920;2022-12-24T14:19:41;8.70;99.90
19920;DHT22;10122;50.074;19.920;2022-12-24T14:24:40;8.80;99.90
19920;DHT22;10122;50.074;19.920;2022-12-24T14:30:00;8.70;99.90
19920;DHT22;10122;50.074;19.920;2022-12-24T14:32:38;8.60;99.90
19920;DHT22;10122;50.074;19.920;2022-12-24T14:35:15;8.40;99.90
19920;DHT22;10122;50.074;19.920;2022-12-24T14:37:44;8.40;99.90
19920;DHT22;10122;50.074;19.920;2022-12-24T14:40:20;8.30;99.90
19920;DHT22;10122;50.074;19.920;2022-12-24T14:42:57;8.20;99.90
19920;DHT22;10122;50.074;19.920;2022-12-24T14:45:27;8.10;99.90
19920;DHT22;10122;50.074;19.920;2022-12-24T14:55:58;8.80;99.90
19920;DHT22;10122;50.074;19.920;2022-12-24T14:58:29;8.80;99.90
19920;DHT22;10122;50.074;19.920;2022-12-24T15:01:01;8.80;99.90
19920;DHT22;10122;50.074;19.920;2022-12-24T15:03:30;8.70;99.90
19920;DHT22;10122;50.074;19.920;2022-12-24T15:06:02;8.80;99.90
19920;DHT22;10122;50.074;19.920;2022-12-24T15:08:48;9.10;99.90
19920;DHT22;10122;50.074;19.920;2022-12-24T15:11:20;9.00;99.90
19920;DHT22;10122;50.074;19.920;2022-12-24T15:13:52;9.00;99.90
19920;DHT22;10122;50.074;19.920;2022-12-24T15:16:28;9.00;99.90
19920;DHT22;10122;50.074;19.920;2022-12-24T15:18:58;8.90;99.90
19920;DHT22;10122;50.074;19.920;2022-12-24T15:21:36;8.80;99.90
19920;DHT22;10122;50.074;19.920;2022-12-24T15:24:32;8.80;99.90
19920;DHT22;10122;50.074;19.920;2022-12-24T15:26:59;8.70;99.90
19920;DHT22;10122;50.074;19.920;2022-12-24T15:29:29;8.70;99.90
19920;DHT22;10122;50.074;19.920;2022-12-24T15:32:00;8.70;99.90
19920;DHT22;10122;50.074;19.920;2022-12-24T15:34:42;8.60;99.90
19920;DHT22;10122;50.074;19.920;2022-12-24T15:37:27;8.50;99.90
19920;DHT22;10122;50.074;19.920;2022-12-24T15:39:56;8.60;99.90
19920;DHT22;10122;50.074;19.920;2022-12-24T15:42:23;8.50;99.90
19920;DHT22;10122;50.074;19.920;2022-12-24T15:47:35;8.40;99.90
19920;DHT22;10122;50.074;19.920;2022-12-24T15:50:33;8.40;99.90
19920;DHT22;10122;50.074;19.920;2022-12-24T15:53:04;8.40;99.90
19920;DHT22;10122;50.074;19.920;2022-12-24T15:58:41;8.50;99.90
19920;DHT22;10122;50.074;19.920;2022-12-24T16:06:16;8.50;99.90
19920;DHT22;10122;50.074;19.920;2022-12-24T16:08:43;8.50;99.90
19920;DHT22;10122;50.074;19.920;2022-12-24T16:14:05;8.40;99.90
19920;DHT22;10122;50.074;19.920;2022-12-24T16:16:40;8.40;99.90
19920;DHT22;10122;50.074;19.920;2022-12-24T16:19:14;8.30;99.90
19920;DHT22;10122;50.074;19.920;2022-12-24T16:21:41;8.30;99.90
19920;DHT22;10122;50.074;19.920;2022-12-24T16:24:19;8.30;99.90
19920;DHT22;10122;50.074;19.920;2022-12-24T16:26:45;8.40;99.90
19920;DHT22;10122;50.074;19.920;2022-12-24T16:29:13;8.40;99.90
19920;DHT22;10122;50.074;19.920;2022-12-24T16:31:57;8.50;99.90
19920;DHT22;10122;50.074;19.920;2022-12-24T16:34:27;8.50;99.90
19920;DHT22;10122;50.074;19.920;2022-12-24T16:36:53;8.40;99.90
19920;DHT22;10122;50.074;19.920;2022-12-24T16:39:22;8.40;99.90
19920;DHT22;10122;50.074;19.920;2022-12-24T16:41:52;8.50;99.90
19920;DHT22;10122;50.074;19.920;2022-12-24T16:44:37;8.50;99.90
19920;DHT22;10122;50.074;19.920;2022-12-24T16:47:09;8.40;99.90
19920;DHT22;10122;50.074;19.920;2022-12-24T16:49:36;8.40;99.90
19920;DHT22;10122;50.074;19.920;2022-12-24T16:52:04;8.50;99.90
19920;DHT22;10122;50.074;19.920;2022-12-24T16:54:30;8.50;99.90
19920;DHT22;10122;50.074;19.920;2022-12-24T16:56:56;8.50;99.90
19920;DHT22;10122;50.074;19.920;2022-12-24T16:59:22;8.50;99.90
19920;DHT22;10122;50.074;19.920;2022-12-24T17:01:49;8.50;99.90
19920;DHT22;10122;50.074;19.920;2022-12-24T17:04:16;8.50;99.90
19920;DHT22;10122;50.074;19.920;2022-12-24T17:06:43;8.40;99.90
19920;DHT22;10122;50.074;19.920;2022-12-24T17:09:10;8.40;99.90
19920;DHT22;10122;50.074;19.920;2022-12-24T17:11:36;8.40;99.90
19920;DHT22;10122;50.074;19.920;2022-12-24T17:14:03;8.40;99.90
19920;DHT22;10122;50.074;19.920;2022-12-24T17:16:30;8.30;99.90
19920;DHT22;10122;50.074;19.920;2022-12-24T17:18:55;8.40;99.90
19920;DHT22;10122;50.074;19.920;2022-12-24T17:21:21;8.30;99.90
19920;DHT22;10122;50.074;19.920;2022-12-24T17:23:47;8.30;99.90
19920;DHT22;10122;50.074;19.920;2022-12-24T17:26:13;8.30;99.90
19920;DHT22;10122;50.074;19.920;2022-12-24T17:28:40;8.30;99.90
19920;DHT22;10122;50.074;19.920;2022-12-24T17:31:10;8.30;99.90
19920;DHT22;10122;50.074;19.920;2022-12-24T17:33:36;8.20;99.90
19920;DHT22;10122;50.074;19.920;2022-12-24T17:36:02;8.20;99.90
19920;DHT22;10122;50.074;19.920;2022-12-24T17:38:28;8.20;99.90
19920;DHT22;10122;50.074;19.920;2022-12-24T17:41:05;8.30;99.90
19920;DHT22;10122;50.074;19.920;2022-12-24T17:43:34;8.20;99.90
19920;DHT22;10122;50.074;19.920;2022-12-24T17:46:14;8.20;99.90